createdAt,value
2018-10-11T00:00:13.235Z,18.40
2018-10-11T00:02:42.113Z,18.98
2018-10-11T00:05:10.978Z,19.37
2018-10-11T00:07:39.823Z,20.32
2018-10-11T00:10:08.683Z,19.35
2018-10-11T00:12:37.577Z,20.65
2018-10-11T00:15:06.791Z,19.55
2018-10-11T00:17:35.696Z,19.20
2018-10-11T00:20:04.700Z,21.25
2018-10-11T00:22:33.638Z,20.82
2018-10-11T00:25:02.542Z,20.65
2018-10-11T00:27:31.458Z,20.88
2018-10-11T00:30:00.383Z,21.75
2018-10-11T00:32:29.348Z,21.85
2018-10-11T00:34:58.232Z,21.97
2018-10-11T00:37:27.127Z,21.25
2018-10-11T00:39:56.029Z,21.93
2018-10-11T00:42:24.891Z,22.00
2018-10-11T00:44:53.763Z,22.07
2018-10-11T00:47:22.914Z,22.17
2018-10-11T00:49:51.801Z,22.30
2018-10-11T00:52:20.698Z,23.35
2018-10-11T00:54:49.575Z,23.55
2018-10-11T00:57:18.441Z,22.30
2018-10-11T00:59:47.309Z,21.50
2018-10-11T01:02:16.159Z,22.40
2018-10-11T01:04:45.062Z,24.27
2018-10-11T01:07:13.370Z,22.95
2018-10-11T01:09:42.357Z,22.67
2018-10-11T01:12:11.267Z,23.12
2018-10-11T01:14:40.397Z,22.93
2018-10-11T01:17:09.673Z,23.77
2018-10-11T01:19:38.564Z,23.47
2018-10-11T01:22:07.499Z,23.40
2018-10-11T01:24:36.754Z,24.00
2018-10-11T01:27:05.780Z,24.57
2018-10-11T01:29:34.721Z,23.57
2018-10-11T01:32:03.273Z,24.75
2018-10-11T01:34:32.169Z,23.27
2018-10-11T01:37:01.315Z,23.95
2018-10-11T01:39:30.559Z,23.77
2018-10-11T01:41:58.829Z,24.90
2018-10-11T01:44:27.231Z,24.15
2018-10-11T01:46:56.138Z,25.25
2018-10-11T01:49:24.830Z,25.02
2018-10-11T01:51:53.697Z,24.52
2018-10-11T01:54:22.347Z,24.80
2018-10-11T01:56:51.331Z,25.35
2018-10-11T01:59:19.782Z,25.47
2018-10-11T02:01:48.102Z,26.07
2018-10-11T02:04:16.427Z,24.83
2018-10-11T02:06:44.732Z,25.03
2018-10-11T02:09:13.099Z,26.33
2018-10-11T02:11:41.411Z,25.57
2018-10-11T02:14:09.873Z,25.52
2018-10-11T02:16:38.198Z,24.43
2018-10-11T02:19:06.658Z,25.80
2018-10-11T02:21:34.973Z,26.87
2018-10-11T02:24:03.307Z,26.83
2018-10-11T02:26:31.616Z,26.20
2018-10-11T02:28:59.932Z,26.70
2018-10-11T02:31:28.241Z,28.53
2018-10-11T02:33:57.115Z,27.22
2018-10-11T02:36:25.387Z,26.68
2018-10-11T02:38:53.749Z,27.83
2018-10-11T02:41:22.749Z,26.75
2018-10-11T02:43:51.621Z,28.07
2018-10-11T02:46:20.519Z,28.30
2018-10-11T02:48:49.592Z,27.27
2018-10-11T02:51:17.924Z,28.37
2018-10-11T02:53:46.227Z,28.60
2018-10-11T02:56:14.519Z,28.47
2018-10-11T02:58:54.220Z,27.10
2018-10-11T03:01:22.918Z,27.57
2018-10-11T03:03:54.510Z,29.13
2018-10-11T03:06:22.832Z,29.77
2018-10-11T03:08:51.150Z,27.97
2018-10-11T03:11:19.551Z,29.03
2018-10-11T03:13:47.849Z,29.27
2018-10-11T03:16:16.515Z,28.77
2018-10-11T03:18:45.211Z,28.83
2018-10-11T03:21:13.498Z,30.17
2018-10-11T03:23:42.013Z,29.93
2018-10-11T03:26:10.296Z,29.67
2018-10-11T03:28:38.626Z,29.00
2018-10-11T03:31:07.332Z,28.40
2018-10-11T03:33:35.884Z,29.83
2018-10-11T03:36:04.189Z,29.80
2018-10-11T03:38:32.495Z,29.60
2018-10-11T03:41:00.811Z,31.47
2018-10-11T03:43:29.095Z,29.40
2018-10-11T03:45:57.434Z,29.23
2018-10-11T03:48:25.744Z,30.77
2018-10-11T03:50:54.063Z,30.60
2018-10-11T03:53:22.367Z,31.10
2018-10-11T03:55:50.693Z,31.03
2018-10-11T03:58:19.076Z,31.00
2018-10-11T04:00:47.373Z,31.07
2018-10-11T04:03:15.672Z,31.87
2018-10-11T04:05:43.968Z,30.73
2018-10-11T04:08:12.265Z,30.90
2018-10-11T04:10:40.664Z,31.10
2018-10-11T04:13:08.950Z,29.83
2018-10-11T04:15:37.250Z,29.97
2018-10-11T04:18:05.808Z,30.17
2018-10-11T04:20:34.668Z,29.12
2018-10-11T04:23:02.974Z,29.27
2018-10-11T04:25:31.263Z,30.03
2018-10-11T04:27:59.571Z,30.03
2018-10-11T04:30:27.878Z,30.27
2018-10-11T04:32:56.643Z,30.33
2018-10-11T04:35:25.183Z,29.37
2018-10-11T04:37:53.488Z,28.03
2018-10-11T04:40:21.807Z,28.63
2018-10-11T04:42:50.143Z,30.37
2018-10-11T04:45:19.155Z,28.55
2018-10-11T04:47:47.485Z,28.12
2018-10-11T04:50:16.365Z,27.93
2018-10-11T04:52:45.357Z,29.05
2018-10-11T04:55:14.234Z,29.25
2018-10-11T04:57:43.135Z,28.60
2018-10-11T05:00:11.481Z,29.00
2018-10-11T05:02:40.085Z,29.90
2018-10-11T05:05:09.234Z,28.00
2018-10-11T05:07:38.299Z,28.77
2018-10-11T05:10:07.235Z,27.95
2018-10-11T05:12:36.224Z,28.60
2018-10-11T05:15:05.202Z,29.57
2018-10-11T05:17:33.595Z,29.07
2018-10-11T05:20:02.301Z,27.63
2018-10-11T05:22:30.646Z,29.42
2018-10-11T05:24:59.512Z,28.83
2018-10-11T05:27:28.410Z,29.25
2018-10-11T05:29:57.010Z,30.03
2018-10-11T05:32:26.581Z,29.65
2018-10-11T05:34:55.359Z,28.83
2018-10-11T05:37:23.665Z,29.87
2018-10-11T05:42:51.707Z,28.57
2018-10-11T05:45:22.223Z,29.23
2018-10-11T05:47:50.548Z,29.60
2018-10-11T05:50:18.923Z,28.73
2018-10-11T05:52:47.458Z,29.05
2018-10-11T05:55:16.352Z,29.57
2018-10-11T05:57:45.324Z,27.95
2018-10-11T06:00:14.217Z,27.60
2018-10-11T06:02:55.613Z,29.23
2018-10-11T06:05:23.870Z,28.27
2018-10-11T06:07:52.814Z,28.27
2018-10-11T06:10:21.703Z,28.95
2018-10-11T06:12:50.607Z,27.58
2018-10-11T06:15:20.006Z,27.70
2018-10-11T06:17:49.216Z,28.92
2018-10-11T06:20:18.268Z,26.33
2018-10-11T06:22:47.599Z,28.75
2018-10-11T06:25:16.114Z,27.70
2018-10-11T06:27:45.366Z,26.80
2018-10-11T06:30:14.649Z,26.97
2018-10-11T06:32:44.273Z,25.08
2018-10-11T06:35:13.337Z,25.12
2018-10-11T06:37:42.899Z,24.95
2018-10-11T06:46:56.596Z,21.97
2018-10-11T06:49:25.696Z,22.02
2018-10-11T06:51:54.583Z,21.40
2018-10-11T06:54:23.472Z,20.88
2018-10-11T06:56:52.360Z,19.85
2018-10-11T06:59:21.220Z,19.02
2018-10-11T07:01:49.850Z,19.27
2018-10-11T07:04:18.956Z,19.70
2018-10-11T07:06:47.844Z,18.27
2018-10-11T07:09:16.754Z,17.52
2018-10-11T07:11:45.639Z,16.17
2018-10-11T07:14:14.561Z,17.17
2018-10-11T07:16:44.152Z,16.65
2018-10-11T07:19:13.158Z,15.85
2018-10-11T07:21:43.538Z,15.40
2018-10-11T07:24:12.420Z,14.43
2018-10-11T07:26:41.340Z,14.30
2018-10-11T07:29:10.296Z,13.75
2018-10-11T07:31:39.184Z,14.30
2018-10-11T07:34:08.483Z,14.50
2018-10-11T07:36:37.453Z,14.65
2018-10-11T07:39:09.717Z,13.90
2018-10-11T07:41:38.601Z,14.18
2018-10-11T07:44:08.419Z,14.50
2018-10-11T07:46:37.691Z,14.50
2018-10-11T07:49:07.631Z,14.78
2018-10-11T07:51:36.740Z,13.30
2018-10-11T07:54:05.641Z,13.45
2018-10-11T07:56:34.585Z,13.95
2018-10-11T07:59:03.728Z,12.18
2018-10-11T08:01:32.347Z,12.37
2018-10-11T08:04:01.325Z,11.12
2018-10-11T08:06:30.214Z,12.18
2018-10-11T08:08:59.140Z,10.80
2018-10-11T08:11:28.292Z,9.78
2018-10-11T08:13:57.290Z,10.30
2018-10-11T08:16:26.172Z,10.05
2018-10-11T08:18:55.290Z,9.95
2018-10-11T08:21:24.353Z,9.98
2018-10-11T08:23:53.467Z,10.60
2018-10-11T08:26:22.795Z,11.12
2018-10-11T08:28:51.476Z,10.58
2018-10-11T08:31:20.340Z,10.82
2018-10-11T08:33:49.596Z,11.28
2018-10-11T08:36:18.499Z,10.95
2018-10-11T08:38:47.388Z,11.30
2018-10-11T08:41:17.475Z,10.98
2018-10-11T08:43:46.335Z,10.90
2018-10-11T08:46:15.236Z,11.03
2018-10-11T08:48:44.479Z,10.85
2018-10-11T08:51:13.377Z,11.45
2018-10-11T08:53:42.383Z,11.50
2018-10-11T08:56:11.316Z,11.15
2018-10-11T08:58:40.231Z,11.85
2018-10-11T09:01:08.878Z,11.47
2018-10-11T09:03:37.873Z,11.55
2018-10-11T09:06:07.201Z,11.25
2018-10-11T09:08:36.246Z,10.70
2018-10-11T09:11:05.265Z,12.07
2018-10-11T09:13:34.242Z,11.20
2018-10-11T09:16:03.089Z,9.90
2018-10-11T09:18:31.985Z,10.90
2018-10-11T09:21:04.744Z,11.12
2018-10-11T09:23:33.633Z,10.75
2018-10-11T09:26:02.888Z,10.68
2018-10-11T09:28:31.744Z,10.53
2018-10-11T09:31:00.651Z,10.38
2018-10-11T09:33:29.601Z,10.55
2018-10-11T09:35:58.456Z,9.40
2018-10-11T09:38:27.270Z,9.33
2018-10-11T09:40:56.158Z,9.85
2018-10-11T09:43:28.810Z,10.20
2018-10-11T09:45:57.688Z,9.55
2018-10-11T09:48:26.567Z,9.03
2018-10-11T09:50:55.454Z,9.00
2018-10-11T09:53:24.307Z,9.48
2018-10-11T09:55:53.178Z,8.88
2018-10-11T09:58:22.095Z,8.75
2018-10-11T10:00:56.054Z,8.30
2018-10-11T10:03:24.928Z,7.80
2018-10-11T10:05:53.847Z,8.75
2018-10-11T10:08:22.733Z,8.85
2018-10-11T10:10:51.627Z,8.90
2018-10-11T10:13:20.482Z,9.83
2018-10-11T10:15:49.371Z,10.00
2018-10-11T10:18:18.244Z,9.90
2018-10-11T10:20:47.199Z,10.03
2018-10-11T10:23:16.082Z,9.93
2018-10-11T10:25:44.963Z,10.88
2018-10-11T10:28:13.812Z,10.82
2018-10-11T10:30:48.027Z,10.32
2018-10-11T10:33:16.896Z,10.40
2018-10-11T10:35:45.769Z,9.38
2018-10-11T10:38:14.659Z,9.50
2018-10-11T10:40:43.529Z,9.28
2018-10-11T10:43:12.691Z,9.10
2018-10-11T10:45:42.084Z,9.43
2018-10-11T10:48:10.931Z,9.80
2018-10-11T10:50:39.807Z,9.55
2018-10-11T10:53:08.683Z,8.50
2018-10-11T10:55:37.541Z,8.50
2018-10-11T10:58:06.438Z,8.65
2018-10-11T11:00:41.144Z,8.28
2018-10-11T11:03:09.890Z,8.60
2018-10-11T11:05:38.816Z,7.97
2018-10-11T11:08:07.745Z,6.85
2018-10-11T11:10:36.652Z,7.62
2018-10-11T11:13:05.512Z,7.03
2018-10-11T11:15:34.643Z,6.90
2018-10-11T11:18:03.545Z,7.08
2018-10-11T11:20:32.402Z,6.20
2018-10-11T11:23:01.494Z,6.05
2018-10-11T11:25:30.435Z,5.97
2018-10-11T11:27:59.271Z,6.65
2018-10-11T11:30:28.161Z,7.40
2018-10-11T11:32:56.997Z,6.62
2018-10-11T11:35:25.972Z,8.35
2018-10-11T11:37:54.863Z,8.80
2018-10-11T11:40:23.746Z,8.53
2018-10-11T11:42:52.625Z,8.95
2018-10-11T11:45:21.875Z,9.00
2018-10-11T11:47:50.763Z,8.58
2018-10-11T11:50:19.762Z,7.83
2018-10-11T11:52:48.751Z,7.33
2018-10-11T11:55:17.624Z,6.90
2018-10-11T11:57:46.498Z,6.78
2018-10-11T12:00:15.483Z,7.95
2018-10-11T12:02:44.131Z,6.87
2018-10-11T12:05:13.205Z,6.55
2018-10-11T12:07:42.221Z,6.40
2018-10-11T12:10:11.081Z,7.10
2018-10-11T12:13:04.245Z,7.72
2018-10-11T12:15:33.715Z,6.80
2018-10-11T12:18:03.522Z,6.72
2018-10-11T12:20:34.521Z,7.00
2018-10-11T12:23:04.552Z,7.12
2018-10-11T12:25:34.045Z,6.50
2018-10-11T12:28:02.921Z,6.60
2018-10-11T12:30:32.155Z,6.72
2018-10-11T12:33:01.688Z,6.20
2018-10-11T12:35:31.266Z,6.47
2018-10-11T12:38:00.133Z,5.55
2018-10-11T12:40:29.007Z,5.92
2018-10-11T12:42:57.876Z,6.10
2018-10-11T12:45:26.809Z,5.62
2018-10-11T12:47:55.810Z,5.65
2018-10-11T12:50:24.982Z,5.25
2018-10-11T12:52:53.944Z,5.20
2018-10-11T12:55:22.818Z,5.30
2018-10-11T12:57:51.673Z,5.22
2018-10-11T13:00:23.978Z,5.05
2018-10-11T13:02:52.564Z,5.10
2018-10-11T13:05:21.562Z,5.12
2018-10-11T13:07:50.433Z,5.03
2018-10-11T13:10:19.321Z,4.70
2018-10-11T13:12:48.167Z,4.90
2018-10-11T13:15:17.210Z,4.70
2018-10-11T13:17:46.310Z,4.70
2018-10-11T13:20:15.182Z,4.33
2018-10-11T13:22:44.066Z,4.47
2018-10-11T13:25:13.068Z,4.20
2018-10-11T13:27:42.291Z,4.20
2018-10-11T13:30:11.477Z,5.50
2018-10-11T13:32:40.379Z,5.50
2018-10-11T13:35:09.273Z,5.92
2018-10-11T13:37:38.289Z,5.55
2018-10-11T13:40:07.903Z,5.35
2018-10-11T13:42:36.777Z,4.72
2018-10-11T13:45:06.060Z,4.83
2018-10-11T13:47:39.798Z,4.35
2018-10-11T13:50:04.000Z,4.60
2018-10-11T13:52:32.895Z,4.25
2018-10-11T13:55:08.122Z,5.12
2018-10-11T13:57:31.591Z,5.37
2018-10-11T14:00:00.505Z,5.35
2018-10-11T14:02:29.149Z,5.70
2018-10-11T14:04:58.019Z,5.58
2018-10-11T14:07:26.901Z,5.30
2018-10-11T14:09:55.772Z,5.55
2018-10-11T14:12:24.702Z,5.67
2018-10-11T14:14:53.624Z,4.92
2018-10-11T14:17:22.576Z,5.22
2018-10-11T14:19:52.630Z,4.95
2018-10-11T14:22:21.699Z,4.45
2018-10-11T14:24:50.582Z,4.35
2018-10-11T14:27:19.469Z,4.28
2018-10-11T14:29:48.389Z,4.60
2018-10-11T14:32:17.310Z,5.08
2018-10-11T14:34:46.170Z,6.05
2018-10-11T14:37:15.239Z,6.00
2018-10-11T14:39:44.192Z,5.53
2018-10-11T14:42:14.284Z,5.58
2018-10-11T14:47:06.301Z,5.00
2018-10-11T14:49:35.196Z,5.37
2018-10-11T14:52:04.074Z,5.30
2018-10-11T14:54:34.707Z,4.97
2018-10-11T14:57:05.116Z,4.25
2018-10-11T14:59:34.303Z,4.00
2018-10-11T15:02:03.159Z,4.17
2018-10-11T15:04:32.615Z,3.92
2018-10-11T15:07:01.520Z,4.12
2018-10-11T15:09:30.764Z,3.77
2018-10-11T15:11:59.636Z,3.92
2018-10-11T15:14:28.669Z,4.08
2018-10-11T15:16:57.777Z,3.72
2018-10-11T15:19:26.699Z,3.98
2018-10-11T15:36:24.874Z,3.27
2018-10-11T15:38:53.510Z,3.23
2018-10-11T15:41:22.148Z,3.07
2018-10-11T15:43:50.713Z,3.17
2018-10-11T15:46:19.323Z,3.03
2018-10-11T15:48:48.057Z,3.00
2018-10-11T15:51:16.700Z,3.27
2018-10-11T15:53:45.306Z,3.10
2018-10-11T15:56:13.901Z,3.40
2018-10-11T16:01:39.208Z,3.40
2018-10-11T16:04:08.335Z,2.85
2018-10-11T16:06:37.232Z,3.30
2018-10-11T16:09:07.845Z,3.12
2018-10-11T16:11:36.847Z,3.37
2018-10-11T16:14:05.673Z,3.40
2018-10-11T16:16:34.542Z,3.87
2018-10-11T16:19:03.455Z,3.40
2018-10-11T16:21:32.305Z,3.70
2018-10-11T16:27:00.339Z,3.40
2018-10-11T16:29:29.261Z,3.70
2018-10-11T16:31:58.120Z,3.75
2018-10-11T16:34:27.026Z,4.35
2018-10-11T16:36:55.909Z,4.33
2018-10-11T16:39:24.771Z,4.47
2018-10-11T16:41:54.078Z,4.30
2018-10-11T16:44:22.959Z,3.92
2018-10-11T16:46:51.836Z,4.10
2018-10-11T16:55:07.326Z,4.33
2018-10-11T16:57:36.189Z,4.47
2018-10-11T17:00:05.346Z,4.87
2018-10-11T17:02:33.935Z,4.87
2018-10-11T17:05:02.829Z,5.20
2018-10-11T17:07:31.834Z,4.97
2018-10-11T17:10:00.760Z,5.12
2018-10-11T17:12:29.944Z,5.50
2018-10-11T17:14:58.928Z,4.95
2018-10-11T17:17:27.849Z,5.30
2018-10-11T17:19:56.804Z,5.75
2018-10-11T17:22:25.832Z,6.33
2018-10-11T17:24:54.700Z,6.35
2018-10-11T17:27:23.927Z,6.25
2018-10-11T17:29:53.013Z,5.92
2018-10-11T17:32:22.006Z,6.55
2018-10-11T17:34:51.332Z,6.05
2018-10-11T17:37:20.333Z,6.80
2018-10-11T17:39:49.311Z,6.10
2018-10-11T17:42:18.363Z,7.50
2018-10-11T17:44:47.417Z,7.20
2018-10-11T17:47:16.377Z,6.85
2018-10-11T17:49:45.281Z,6.58
2018-10-11T17:52:14.408Z,6.22
2018-10-11T17:54:48.835Z,6.55
2018-10-11T17:57:18.334Z,6.78
2018-10-11T17:59:47.655Z,7.58
2018-10-11T18:02:16.600Z,7.67
2018-10-11T18:04:45.508Z,7.95
2018-10-11T18:07:14.763Z,7.55
2018-10-11T18:09:43.626Z,6.72
2018-10-11T18:12:12.545Z,6.95
2018-10-11T18:14:41.760Z,7.60
2018-10-11T18:17:10.749Z,7.58
2018-10-11T18:19:39.658Z,7.85
2018-10-11T18:22:08.583Z,7.83
2018-10-11T18:24:37.507Z,7.75
2018-10-11T18:27:06.393Z,7.42
2018-10-11T18:29:35.320Z,7.67
2018-10-11T18:32:04.216Z,8.43
2018-10-11T18:34:33.082Z,8.28
2018-10-11T18:37:02.032Z,8.13
2018-10-11T18:39:31.465Z,7.67
2018-10-11T18:42:00.732Z,7.45
2018-10-11T18:44:29.658Z,8.10
2018-10-11T18:46:58.725Z,8.30
2018-10-11T18:49:27.593Z,7.55
2018-10-11T18:51:56.548Z,7.83
2018-10-11T18:54:25.502Z,8.78
2018-10-11T18:56:54.427Z,7.22
2018-10-11T18:59:23.335Z,7.12
2018-10-11T19:01:51.923Z,8.00
2018-10-11T19:04:20.908Z,7.65
2018-10-11T19:06:49.829Z,7.12
2018-10-11T19:09:18.782Z,8.90
2018-10-11T19:11:47.733Z,8.90
2018-10-11T19:14:16.794Z,8.78
2018-10-11T19:16:45.751Z,8.88
2018-10-11T19:19:14.760Z,8.70
2018-10-11T19:21:43.696Z,7.95
2018-10-11T19:24:12.653Z,8.50
2018-10-11T19:26:41.580Z,8.68
2018-10-11T19:29:10.536Z,8.25
2018-10-11T19:31:39.648Z,9.03
2018-10-11T19:34:08.572Z,7.75
2018-10-11T19:36:37.513Z,7.92
2018-10-11T19:39:09.039Z,8.00
2018-10-11T19:41:38.188Z,8.73
2018-10-11T19:44:07.100Z,7.72
2018-10-11T19:46:36.012Z,7.67
2018-10-11T19:49:05.514Z,8.60
2018-10-11T19:51:34.605Z,8.30
2018-10-11T19:54:03.501Z,7.97
2018-10-11T19:56:32.394Z,8.45
2018-10-11T19:59:01.320Z,8.13
2018-10-11T20:01:30.297Z,7.20
2018-10-11T20:03:59.311Z,7.72
2018-10-11T20:06:28.234Z,7.92
2018-10-11T20:08:57.134Z,7.58
2018-10-11T20:11:26.016Z,7.15
2018-10-11T20:13:55.063Z,7.47
2018-10-11T20:16:23.991Z,7.33
2018-10-11T20:18:52.943Z,7.35
2018-10-11T20:21:21.856Z,7.85
2018-10-11T20:23:50.816Z,8.08
2018-10-11T20:26:19.934Z,8.00
2018-10-11T20:28:48.865Z,7.53
2018-10-11T20:31:17.744Z,7.87
2018-10-11T20:33:46.716Z,7.35
2018-10-11T20:36:15.680Z,8.38
2018-10-11T20:38:44.614Z,7.92
2018-10-11T20:41:13.531Z,7.85
2018-10-11T20:43:42.440Z,7.47
2018-10-11T20:46:11.552Z,7.72
2018-10-11T20:48:40.723Z,7.65
2018-10-11T20:51:09.733Z,7.65
2018-10-11T20:53:38.801Z,7.33
2018-10-11T20:56:08.070Z,7.15
2018-10-11T20:58:36.922Z,7.00
2018-10-11T21:01:05.972Z,7.87
2018-10-11T21:03:34.860Z,7.53
2018-10-11T21:06:04.116Z,6.60
2018-10-11T21:08:33.008Z,6.70
2018-10-11T21:11:02.160Z,6.30
2018-10-11T21:13:31.054Z,6.33
2018-10-11T21:15:59.933Z,6.92
2018-10-11T21:18:28.838Z,6.55
2018-10-11T21:20:57.733Z,6.60
2018-10-11T21:23:26.694Z,6.97
2018-10-11T21:25:55.528Z,6.92
2018-10-11T21:28:24.438Z,6.28
2018-10-11T21:30:53.357Z,6.80
2018-10-11T21:33:22.250Z,7.53
2018-10-11T21:35:51.182Z,7.35
2018-10-11T21:38:20.072Z,7.20
2018-10-11T21:40:48.954Z,7.25
2018-10-11T21:43:17.887Z,8.20
2018-10-11T21:45:46.754Z,7.40
2018-10-11T21:48:15.628Z,7.20
2018-10-11T21:50:44.482Z,7.28
2018-10-11T21:53:13.394Z,7.72
2018-10-11T21:55:42.269Z,7.47
2018-10-11T21:58:11.277Z,8.05
2018-10-11T22:00:45.379Z,8.53
2018-10-11T22:03:14.260Z,7.45
2018-10-11T22:05:43.145Z,7.90
2018-10-11T22:08:11.994Z,8.00
2018-10-11T22:10:40.857Z,7.85
2018-10-11T22:13:09.741Z,7.47
2018-10-11T22:15:38.659Z,7.47
2018-10-11T22:18:07.571Z,8.05
2018-10-11T22:20:36.397Z,7.45
2018-10-11T22:23:05.284Z,8.30
2018-10-11T22:25:34.170Z,8.00
2018-10-11T22:28:03.026Z,7.62
2018-10-11T22:30:31.897Z,7.87
2018-10-11T22:33:00.880Z,7.30
2018-10-11T22:35:29.754Z,7.53
2018-10-11T22:38:00.177Z,6.97
2018-10-11T22:40:29.657Z,6.95
2018-10-11T22:42:58.587Z,7.35
2018-10-11T22:45:27.756Z,7.12
2018-10-11T22:47:57.103Z,7.30
2018-10-11T22:50:27.194Z,7.70
2018-10-11T22:52:56.426Z,7.75
2018-10-11T22:55:25.947Z,7.53
2018-10-11T22:57:55.536Z,7.37
2018-10-11T23:00:24.622Z,7.80
2018-10-11T23:02:53.800Z,7.40
2018-10-11T23:05:23.048Z,7.47
2018-10-11T23:07:51.987Z,7.00
2018-10-11T23:10:21.111Z,7.30
2018-10-11T23:12:50.365Z,6.50
2018-10-11T23:15:19.230Z,7.00
2018-10-11T23:17:48.075Z,6.92
2018-10-11T23:20:16.920Z,6.58
2018-10-11T23:22:45.768Z,6.40
2018-10-11T23:25:14.642Z,6.65
2018-10-11T23:27:43.563Z,5.95
2018-10-11T23:30:12.751Z,6.30
2018-10-11T23:32:42.411Z,5.67
2018-10-11T23:35:11.938Z,5.42
2018-10-11T23:37:41.112Z,5.25
2018-10-11T23:40:11.140Z,5.40
2018-10-11T23:42:40.754Z,5.15
2018-10-11T23:45:11.296Z,4.15
2018-10-11T23:47:40.465Z,4.15
2018-10-11T23:50:09.358Z,3.65
2018-10-11T23:52:38.363Z,3.30
2018-10-11T23:55:07.603Z,3.90
2018-10-11T23:57:36.479Z,4.50
